createdAt,value
2022-08-05T00:01:20.187Z,19.11
2022-08-05T00:04:08.319Z,19.16
2022-08-05T00:06:53.073Z,19.24
2022-08-05T00:09:36.385Z,19.21
2022-08-05T00:12:19.451Z,19.17
2022-08-05T00:15:54.382Z,19.17
2022-08-05T00:18:05.900Z,18.99
2022-08-05T00:20:51.502Z,19.07
2022-08-05T00:23:45.798Z,19.08
2022-08-05T00:26:36.336Z,18.96
2022-08-05T00:29:19.445Z,18.91
2022-08-05T00:32:13.169Z,18.82
2022-08-05T00:35:06.716Z,18.89
2022-08-05T00:37:53.831Z,18.89
2022-08-05T00:40:51.954Z,18.67
2022-08-05T00:43:47.034Z,18.86
2022-08-05T00:46:36.870Z,18.68
2022-08-05T00:49:26.587Z,18.71
2022-08-05T00:52:15.997Z,18.58
2022-08-05T00:55:00.773Z,18.52
2022-08-05T00:57:58.158Z,18.42
2022-08-05T01:00:42.610Z,18.47
2022-08-05T01:03:30.753Z,18.40
2022-08-05T01:06:16.497Z,18.34
2022-08-05T01:09:00.662Z,18.11
2022-08-05T01:11:49.806Z,17.91
2022-08-05T01:14:41.885Z,17.90
2022-08-05T01:17:31.021Z,17.76
2022-08-05T01:20:35.192Z,17.75
2022-08-05T01:23:36.126Z,17.69
2022-08-05T01:26:45.424Z,17.66
2022-08-05T01:29:38.400Z,17.59
2022-08-05T01:32:31.606Z,17.52
2022-08-05T01:35:50.208Z,17.50
2022-08-05T01:38:29.263Z,17.46
2022-08-05T01:41:16.147Z,17.41
2022-08-05T01:44:09.794Z,17.38
2022-08-05T01:46:56.416Z,17.35
2022-08-05T01:50:02.138Z,17.31
2022-08-05T01:52:50.322Z,17.42
2022-08-05T01:55:36.503Z,17.40
2022-08-05T01:58:40.429Z,17.62
2022-08-05T02:01:38.817Z,17.62
2022-08-05T02:04:27.797Z,17.57
2022-08-05T02:07:11.290Z,17.52
2022-08-05T02:10:07.946Z,17.41
2022-08-05T02:12:55.952Z,17.36
2022-08-05T02:15:46.238Z,17.39
2022-08-05T02:18:37.541Z,17.43
2022-08-05T02:21:43.120Z,17.41
2022-08-05T02:24:37.006Z,17.32
2022-08-05T02:27:29.758Z,17.33
2022-08-05T02:30:29.990Z,17.22
2022-08-05T02:33:16.390Z,17.50
2022-08-05T02:36:13.667Z,17.30
2022-08-05T02:39:04.395Z,17.26
2022-08-05T02:42:00.499Z,17.18
2022-08-05T02:44:45.901Z,17.25
2022-08-05T02:47:58.680Z,17.21
2022-08-05T02:50:36.328Z,17.19
2022-08-05T02:53:22.077Z,17.23
2022-08-05T02:56:07.690Z,17.30
2022-08-05T02:58:53.322Z,17.32
2022-08-05T03:01:40.446Z,17.27
2022-08-05T03:04:25.583Z,17.41
2022-08-05T03:07:09.553Z,17.41
2022-08-05T03:10:13.308Z,17.27
2022-08-05T03:15:42.767Z,17.35
2022-08-05T03:18:30.005Z,17.35
2022-08-05T03:21:14.565Z,17.35
2022-08-05T03:23:59.050Z,17.29
2022-08-05T03:26:42.579Z,17.28
2022-08-05T03:29:45.302Z,17.38
2022-08-05T03:32:37.433Z,17.32
2022-08-05T03:35:21.652Z,17.39
2022-08-05T03:38:04.856Z,17.28
2022-08-05T03:40:48.762Z,17.35
2022-08-05T03:44:09.598Z,17.35
2022-08-05T03:46:36.982Z,17.41
2022-08-05T03:49:20.096Z,17.37
2022-08-05T03:52:38.733Z,17.38
2022-08-05T03:56:04.906Z,17.27
2022-08-05T03:58:27.136Z,17.25
2022-08-05T04:01:14.332Z,17.22
2022-08-05T04:04:10.381Z,17.16
2022-08-05T04:06:54.870Z,17.13
2022-08-05T04:09:39.481Z,17.11
2022-08-05T04:15:20.266Z,17.11
2022-08-05T04:18:09.776Z,17.11
2022-08-05T04:20:57.134Z,17.10
2022-08-05T04:24:05.569Z,17.07
2022-08-05T04:26:44.928Z,17.05
2022-08-05T04:29:29.777Z,17.10
2022-08-05T04:32:13.024Z,17.18
2022-08-05T04:34:57.543Z,17.16
2022-08-05T04:38:02.896Z,17.23
2022-08-05T04:40:50.638Z,17.19
2022-08-05T04:43:34.098Z,17.21
2022-08-05T04:46:27.988Z,17.27
2022-08-05T04:49:14.427Z,17.39
2022-08-05T04:52:00.400Z,17.42
2022-08-05T04:54:45.287Z,17.43
2022-08-05T04:57:29.463Z,17.46
2022-08-05T05:00:23.594Z,17.47
2022-08-05T05:03:08.354Z,17.53
2022-08-05T05:06:36.706Z,17.56
2022-08-05T05:08:55.152Z,17.50
2022-08-05T05:11:55.632Z,17.48
2022-08-05T05:14:49.403Z,17.55
2022-08-05T05:17:56.911Z,17.66
2022-08-05T05:20:40.943Z,17.78
2022-08-05T05:24:01.715Z,17.84
2022-08-05T05:26:32.916Z,18.05
2022-08-05T05:29:17.642Z,18.10
2022-08-05T05:32:02.463Z,18.10
2022-08-05T05:34:47.054Z,18.29
2022-08-05T05:37:53.714Z,18.54
2022-08-05T05:40:36.198Z,18.63
2022-08-05T05:43:22.243Z,18.79
2022-08-05T05:46:17.698Z,18.92
2022-08-05T05:49:06.434Z,19.09
2022-08-05T05:52:07.432Z,19.45
2022-08-05T05:54:51.279Z,19.77
2022-08-05T05:57:52.008Z,20.05
2022-08-05T06:00:35.866Z,20.38
2022-08-05T06:03:39.671Z,20.60
2022-08-05T06:06:27.698Z,20.87
2022-08-05T06:09:17.667Z,21.08
2022-08-05T06:12:09.873Z,21.35
2022-08-05T06:14:55.336Z,21.71
2022-08-05T06:17:52.347Z,21.99
2022-08-05T06:20:37.725Z,22.31
2022-08-05T06:23:20.840Z,22.36
2022-08-05T06:26:13.343Z,22.42
2022-08-05T06:29:23.674Z,22.72
2022-08-05T06:32:21.383Z,22.83
2022-08-05T06:35:15.536Z,23.06
2022-08-05T06:38:14.742Z,23.32
2022-08-05T06:40:59.279Z,23.50
2022-08-05T06:43:58.762Z,23.72
2022-08-05T06:46:43.731Z,24.07
2022-08-05T06:50:00.406Z,24.36
2022-08-05T06:52:36.908Z,24.54
2022-08-05T06:55:23.120Z,24.59
2022-08-05T06:58:19.644Z,24.75
2022-08-05T07:01:09.647Z,24.83
2022-08-05T07:03:56.499Z,24.77
2022-08-05T07:06:39.606Z,25.29
2022-08-05T07:09:24.845Z,25.73
2022-08-05T07:12:31.336Z,25.75
2022-08-05T07:15:34.691Z,26.18
2022-08-05T07:18:35.240Z,26.51
2022-08-05T07:21:25.740Z,26.59
2022-08-05T07:24:11.425Z,26.55
2022-08-05T07:26:54.723Z,26.94
2022-08-05T07:30:23.975Z,27.59
2022-08-05T07:32:43.660Z,28.20
2022-08-05T07:36:01.939Z,28.71
2022-08-05T07:38:33.677Z,29.21
2022-08-05T07:42:08.363Z,30.00
2022-08-05T07:44:23.178Z,30.75
2022-08-05T07:47:08.128Z,31.69
2022-08-05T07:49:54.517Z,32.34
2022-08-05T07:52:40.394Z,34.22
2022-08-05T07:56:05.232Z,35.83
2022-08-05T07:58:57.733Z,37.06
2022-08-05T08:01:29.889Z,37.65
2022-08-05T08:04:14.618Z,36.90
2022-08-05T08:07:01.019Z,37.48
2022-08-05T08:09:48.935Z,38.03
2022-08-05T08:12:49.256Z,38.85
2022-08-05T08:15:37.210Z,38.50
2022-08-05T08:18:36.350Z,38.22
2022-08-05T08:21:22.198Z,39.23
2022-08-05T08:24:13.563Z,38.27
2022-08-05T08:26:57.264Z,38.81
2022-08-05T08:30:04.051Z,39.02
2022-08-05T08:32:43.959Z,38.62
2022-08-05T08:35:27.230Z,40.23
2022-08-05T08:38:32.282Z,39.26
2022-08-05T08:41:21.240Z,40.09
2022-08-05T08:45:18.026Z,39.89
2022-08-05T08:47:21.961Z,40.27
2022-08-05T08:50:33.043Z,39.89
2022-08-05T08:53:28.875Z,40.65
2022-08-05T08:56:12.235Z,40.54
2022-08-05T08:59:03.177Z,39.74
2022-08-05T09:01:57.134Z,38.93
2022-08-05T09:04:58.410Z,39.29
2022-08-05T09:07:57.137Z,40.63
2022-08-05T09:10:46.729Z,40.91
2022-08-05T09:13:31.896Z,41.14
2022-08-05T09:16:34.490Z,41.47
2022-08-05T09:19:17.721Z,41.76
2022-08-05T09:22:17.881Z,41.33
2022-08-05T09:25:13.543Z,41.88
2022-08-05T09:28:07.345Z,43.15
2022-08-05T09:30:55.669Z,42.24
2022-08-05T09:33:49.930Z,42.19
2022-08-05T09:36:54.655Z,42.84
2022-08-05T09:39:50.512Z,42.14
2022-08-05T09:42:41.505Z,42.04
2022-08-05T09:46:07.370Z,42.21
2022-08-05T09:48:39.568Z,42.20
2022-08-05T09:51:33.811Z,42.04
2022-08-05T09:54:32.304Z,42.55
2022-08-05T09:57:30.315Z,42.35
2022-08-05T10:00:21.121Z,43.42
2022-08-05T10:03:12.461Z,43.49
2022-08-05T10:06:14.682Z,43.22
2022-08-05T10:09:27.428Z,42.77
2022-08-05T10:12:31.080Z,42.65
2022-08-05T10:15:21.020Z,42.93
2022-08-05T10:18:12.922Z,42.74
2022-08-05T10:20:58.449Z,42.86
2022-08-05T10:23:59.724Z,42.99
2022-08-05T10:26:51.539Z,42.83
2022-08-05T10:30:41.263Z,43.10
2022-08-05T10:32:52.646Z,43.97
2022-08-05T10:35:44.125Z,43.12
2022-08-05T10:38:33.256Z,42.86
2022-08-05T10:41:23.506Z,42.68
2022-08-05T10:44:10.931Z,42.62
2022-08-05T10:46:56.924Z,42.49
2022-08-05T10:50:22.363Z,42.75
2022-08-05T10:53:05.944Z,41.61
2022-08-05T10:56:21.651Z,41.37
2022-08-05T10:59:12.282Z,40.73
2022-08-05T11:02:34.915Z,40.64
2022-08-05T11:05:18.228Z,39.96
2022-08-05T11:08:21.756Z,39.17
2022-08-05T11:11:42.070Z,37.91
2022-08-05T11:15:00.990Z,37.43
2022-08-05T11:18:00.020Z,35.59
2022-08-05T11:20:47.484Z,35.50
2022-08-05T11:24:03.813Z,35.20
2022-08-05T11:26:49.685Z,34.68
2022-08-05T11:29:37.681Z,34.70
2022-08-05T11:32:28.467Z,34.37
2022-08-05T11:36:04.503Z,34.16
2022-08-05T11:38:57.788Z,34.27
2022-08-05T11:42:01.069Z,34.17
2022-08-05T11:44:53.779Z,33.83
2022-08-05T11:47:48.587Z,33.72
2022-08-05T11:50:39.591Z,33.39
2022-08-05T11:53:24.563Z,33.16
2022-08-05T11:56:07.997Z,32.93
2022-08-05T11:58:54.614Z,32.76
2022-08-05T12:01:39.239Z,32.38
2022-08-05T12:04:23.388Z,32.31
2022-08-05T12:07:11.203Z,32.31
2022-08-05T12:10:01.887Z,32.27
2022-08-05T12:12:59.560Z,32.40
2022-08-05T12:15:45.174Z,32.37
2022-08-05T12:18:38.965Z,32.46
2022-08-05T12:21:26.773Z,32.32
2022-08-05T12:24:17.226Z,32.21
2022-08-05T12:27:09.741Z,32.25
2022-08-05T12:30:03.661Z,32.18
2022-08-05T12:32:51.200Z,32.28
2022-08-05T12:35:47.940Z,32.27
2022-08-05T12:38:31.624Z,32.29
2022-08-05T12:41:16.387Z,32.32
2022-08-05T12:44:02.132Z,32.14
2022-08-05T12:46:53.815Z,32.13
2022-08-05T12:50:03.835Z,31.72
2022-08-05T12:52:59.850Z,31.39
2022-08-05T12:55:43.203Z,31.26
2022-08-05T12:58:51.534Z,31.10
2022-08-05T13:02:02.519Z,30.88
2022-08-05T13:04:34.429Z,30.75
2022-08-05T13:07:57.511Z,30.68
2022-08-05T13:10:33.311Z,30.59
2022-08-05T13:14:05.886Z,30.33
2022-08-05T13:16:25.004Z,30.23
2022-08-05T13:19:14.118Z,30.19
2022-08-05T13:22:02.171Z,30.23
2022-08-05T13:24:57.669Z,30.22
2022-08-05T13:27:50.426Z,30.28
2022-08-05T13:30:39.144Z,30.36
2022-08-05T13:34:22.286Z,30.39
2022-08-05T13:36:27.501Z,30.40
2022-08-05T13:40:13.818Z,30.24
2022-08-05T13:42:17.321Z,30.44
2022-08-05T13:45:03.382Z,30.32
2022-08-05T13:48:08.447Z,30.34
2022-08-05T13:50:54.377Z,30.38
2022-08-05T13:53:47.947Z,30.34
2022-08-05T13:56:31.910Z,30.40
2022-08-05T13:59:20.343Z,30.39
2022-08-05T14:02:20.111Z,30.40
2022-08-05T14:05:15.327Z,30.38
2022-08-05T14:08:08.731Z,30.34
2022-08-05T14:11:21.183Z,30.25
2022-08-05T14:14:05.310Z,30.28
2022-08-05T14:16:51.337Z,30.31
2022-08-05T14:19:54.692Z,30.35
2022-08-05T14:22:39.957Z,30.35
2022-08-05T14:25:33.387Z,30.32
2022-08-05T14:28:27.066Z,30.32
2022-08-05T14:31:17.432Z,30.37
2022-08-05T14:34:13.754Z,30.34
2022-08-05T14:36:58.282Z,30.32
2022-08-05T14:39:49.489Z,30.19
2022-08-05T14:42:33.978Z,30.09
2022-08-05T14:45:21.353Z,30.13
2022-08-05T14:48:08.865Z,29.98
2022-08-05T14:50:54.482Z,29.97
2022-08-05T14:53:44.657Z,29.96
2022-08-05T14:56:28.015Z,29.95
2022-08-05T14:59:12.832Z,29.90
2022-08-05T15:01:56.786Z,29.83
2022-08-05T15:04:41.199Z,29.80
2022-08-05T15:08:05.675Z,29.78
2022-08-05T15:10:33.517Z,29.73
2022-08-05T15:13:16.656Z,29.71
2022-08-05T15:16:00.081Z,29.78
2022-08-05T15:18:47.211Z,29.73
2022-08-05T15:21:30.593Z,29.73
2022-08-05T15:24:14.205Z,29.74
2022-08-05T15:27:01.200Z,29.74
2022-08-05T15:29:46.636Z,29.79
2022-08-05T15:32:35.175Z,29.72
2022-08-05T15:35:18.852Z,29.84
2022-08-05T15:38:32.532Z,29.87
2022-08-05T15:41:21.129Z,29.87
2022-08-05T15:44:08.174Z,29.85
2022-08-05T15:46:52.584Z,29.86
2022-08-05T15:49:48.171Z,29.80
2022-08-05T15:52:53.498Z,29.84
2022-08-05T15:56:04.159Z,29.77
2022-08-05T15:58:41.081Z,29.74
2022-08-05T16:01:29.585Z,29.72
2022-08-05T16:04:25.477Z,29.71
2022-08-05T16:07:10.574Z,29.65
2022-08-05T16:09:57.020Z,29.56
2022-08-05T16:12:40.728Z,29.47
2022-08-05T16:15:32.517Z,29.46
2022-08-05T16:18:18.373Z,29.38
2022-08-05T16:21:04.197Z,29.33
2022-08-05T16:23:53.260Z,29.23
2022-08-05T16:26:53.726Z,29.12
2022-08-05T16:29:37.908Z,29.06
2022-08-05T16:32:28.460Z,29.02
2022-08-05T16:35:14.199Z,28.93
2022-08-05T16:38:02.930Z,28.92
2022-08-05T16:41:02.444Z,28.84
2022-08-05T16:44:06.057Z,28.72
2022-08-05T16:46:56.099Z,28.63
2022-08-05T16:49:40.409Z,28.57
2022-08-05T16:52:28.953Z,28.51
2022-08-05T16:55:16.015Z,28.41
2022-08-05T16:58:01.419Z,28.36
2022-08-05T17:00:46.846Z,28.26
2022-08-05T17:03:31.425Z,28.18
2022-08-05T17:06:16.631Z,28.07
2022-08-05T17:09:02.383Z,28.00
2022-08-05T17:11:48.364Z,27.85
2022-08-05T17:14:37.422Z,27.76
2022-08-05T17:17:22.526Z,27.62
2022-08-05T17:20:08.106Z,27.49
2022-08-05T17:22:59.001Z,27.38
2022-08-05T17:25:43.588Z,27.28
2022-08-05T17:28:26.727Z,27.17
2022-08-05T17:31:24.440Z,27.03
2022-08-05T17:34:17.933Z,26.92
2022-08-05T17:37:01.629Z,26.80
2022-08-05T17:39:44.858Z,26.70
2022-08-05T17:42:35.907Z,26.58
2022-08-05T17:45:38.175Z,26.51
2022-08-05T17:48:21.994Z,26.45
2022-08-05T17:51:09.153Z,26.38
2022-08-05T17:53:54.670Z,26.33
2022-08-05T17:56:38.089Z,26.28
2022-08-05T17:59:23.086Z,26.21
2022-08-05T18:02:10.790Z,26.19
2022-08-05T18:04:55.235Z,26.14
2022-08-05T18:07:41.485Z,26.12
2022-08-05T18:10:25.496Z,26.05
2022-08-05T18:13:12.387Z,25.98
2022-08-05T18:15:57.278Z,25.95
2022-08-05T18:18:40.525Z,25.83
2022-08-05T18:21:26.187Z,25.75
2022-08-05T18:24:12.609Z,25.62
2022-08-05T18:26:58.177Z,25.48
2022-08-05T18:29:41.585Z,25.39
2022-08-05T18:32:28.304Z,25.40
2022-08-05T18:35:12.677Z,25.27
2022-08-05T18:37:55.826Z,25.16
2022-08-05T18:41:53.513Z,25.06
2022-08-05T18:43:49.047Z,24.96
2022-08-05T18:46:32.357Z,24.91
2022-08-05T18:49:44.477Z,24.93
2022-08-05T18:52:41.535Z,24.78
2022-08-05T18:55:34.791Z,24.51
2022-08-05T18:58:18.618Z,24.33
2022-08-05T19:01:17.992Z,24.26
2022-08-05T19:04:01.689Z,24.15
2022-08-05T19:06:50.043Z,24.16
2022-08-05T19:09:39.143Z,24.02
2022-08-05T19:12:27.935Z,23.96
2022-08-05T19:15:57.648Z,23.91
2022-08-05T19:18:22.103Z,23.77
2022-08-05T19:21:05.843Z,23.69
2022-08-05T19:24:07.209Z,23.71
2022-08-05T19:26:55.359Z,23.47
2022-08-05T19:29:39.879Z,23.31
2022-08-05T19:32:27.752Z,23.22
2022-08-05T19:35:11.724Z,23.26
2022-08-05T19:38:06.037Z,23.28
2022-08-05T19:40:52.658Z,23.22
2022-08-05T19:44:06.580Z,23.10
2022-08-05T19:46:43.697Z,23.03
2022-08-05T19:49:27.175Z,22.99
2022-08-05T19:52:30.718Z,23.07
2022-08-05T19:56:13.829Z,22.89
2022-08-05T19:58:28.563Z,22.85
2022-08-05T20:01:12.955Z,22.85
2022-08-05T20:03:56.219Z,22.78
2022-08-05T20:06:45.813Z,22.63
2022-08-05T20:09:30.033Z,22.50
2022-08-05T20:12:33.387Z,22.49
2022-08-05T20:15:23.420Z,22.48
2022-08-05T20:18:32.701Z,22.47
2022-08-05T20:21:17.849Z,22.46
2022-08-05T20:24:02.098Z,22.42
2022-08-05T20:26:46.004Z,22.41
2022-08-05T20:29:30.801Z,22.29
2022-08-05T20:32:15.289Z,22.27
2022-08-05T20:34:58.467Z,22.25
2022-08-05T20:38:05.943Z,22.26
2022-08-05T20:40:47.574Z,22.17
2022-08-05T20:43:59.904Z,22.24
2022-08-05T20:46:37.159Z,22.17
2022-08-05T20:49:24.562Z,22.13
2022-08-05T20:52:10.642Z,22.09
2022-08-05T20:54:59.947Z,22.04
2022-08-05T20:57:57.209Z,22.02
2022-08-05T21:00:51.850Z,21.98
2022-08-05T21:03:39.178Z,21.99
2022-08-05T21:06:32.753Z,21.88
2022-08-05T21:09:16.817Z,21.83
2022-08-05T21:12:10.518Z,21.78
2022-08-05T21:14:55.322Z,21.73
2022-08-05T21:17:39.340Z,21.69
2022-08-05T21:20:32.824Z,21.67
2022-08-05T21:23:18.151Z,21.66
2022-08-05T21:26:01.313Z,21.65
2022-08-05T21:28:47.833Z,21.68
2022-08-05T21:31:41.466Z,21.63
2022-08-05T21:34:24.990Z,21.60
2022-08-05T21:37:08.972Z,21.59
2022-08-05T21:39:53.588Z,21.54
2022-08-05T21:42:44.118Z,21.49
2022-08-05T21:45:56.977Z,21.45
2022-08-05T21:48:36.202Z,21.50
2022-08-05T21:51:25.162Z,21.41
2022-08-05T21:54:30.614Z,21.29
2022-08-05T21:57:30.758Z,21.22
2022-08-05T22:00:15.784Z,21.20
2022-08-05T22:02:58.902Z,21.17
2022-08-05T22:05:48.124Z,21.16
2022-08-05T22:08:32.393Z,21.17
2022-08-05T22:11:16.154Z,21.16
2022-08-05T22:14:19.386Z,21.13
2022-08-05T22:17:07.451Z,21.16
2022-08-05T22:20:00.541Z,21.10
2022-08-05T22:23:16.543Z,21.13
2022-08-05T22:26:17.790Z,21.04
2022-08-05T22:29:05.220Z,21.00
2022-08-05T22:31:55.294Z,20.89
2022-08-05T22:34:42.890Z,20.86
2022-08-05T22:37:26.035Z,20.90
2022-08-05T22:40:30.892Z,20.88
2022-08-05T22:43:14.038Z,20.78
2022-08-05T22:45:58.593Z,20.80
2022-08-05T22:48:43.910Z,20.81
2022-08-05T22:51:29.990Z,20.92
2022-08-05T22:54:30.159Z,20.88
2022-08-05T22:57:13.644Z,20.83
2022-08-05T22:59:58.420Z,20.69
2022-08-05T23:02:46.930Z,20.73
2022-08-05T23:05:30.647Z,20.58
2022-08-05T23:08:19.203Z,20.57
2022-08-05T23:11:03.586Z,20.60
2022-08-05T23:13:51.521Z,20.56
2022-08-05T23:16:52.531Z,20.48
2022-08-05T23:19:41.824Z,20.55
2022-08-05T23:22:30.881Z,20.58
2022-08-05T23:25:17.143Z,20.60
2022-08-05T23:28:17.803Z,20.53
2022-08-05T23:31:15.926Z,20.57
2022-08-05T23:34:05.175Z,20.61
2022-08-05T23:36:52.945Z,20.51
2022-08-05T23:39:53.619Z,20.54
2022-08-05T23:42:39.037Z,20.40
2022-08-05T23:45:23.707Z,20.32
2022-08-05T23:48:07.947Z,20.26
2022-08-05T23:50:52.651Z,20.36
2022-08-05T23:53:46.671Z,20.41
2022-08-05T23:56:30.400Z,20.31
2022-08-05T23:59:14.116Z,20.12
